Airfield :
LOGIN :

Register | Disclaimer

   EN    FR    IT 

 










Legend :    VFR   Marginal VFR   IFR   Intensive IFR   Very Intensive IFR
Visi :
Ceiling :
>= 8 km
>= 3000ft
5 to 8 km
1000 to 3000 ft
1500m to 5 km
500 to 1000 ft
800 to 1500m
200 to 500 ft
< 800m
< 200 ft
Symbols :   Thunderstorms  Fog  Heavy snow  Heavy precipitations  Wind > 20 kt
SIGMETs :     Misc.  Thunderstorms  Icing  Turbulence  Mountain Waves  Volcanic Ashes






- Airport Elevation : 446 ft
- IATA code : VNE


LFRV - Vannes-Meucon

CURRENT METAR :
  • 262300Z AUTO 24005KT 210V280 8000 OVC002 09/09 Q1011

EXPIRED METARs :
  • 262230Z AUTO 23006KT 190V260 9999 OVC002/// ///CB 09/09 Q1011
  • 262200Z AUTO 24006KT 210V270 3300 -RA BR OVC002/// ///TCU 09/09 Q1011
  • 262130Z AUTO 23007KT 200V270 3100 -RA BR OVC002 09/09 Q1011
  • 262100Z AUTO 24006KT 200V280 3800 -RA BR BKN003/// OVC009/// ///TCU 09/09 Q1011
  • 262030Z AUTO 22010G21KT 180V280 3800 +RA BR VV/// ///TCU 10/10 Q1011
  • 262000Z AUTO 21011KT 170V250 3800 RA BR OVC002/// ///CB 10/10 Q1011

TAF N/A



MET'MAP, your aeronautical weather chart ! - Copyright ORBIFLY December 2007 - Disclaimer

ORBIFLY MET'MAP TEAM :

Programming & Development : Alexandra Zaïnal
Concept & original design : Baudouin d'Aumeries
Assistance for programming : Marc-Olivier Méhu
Technical & hardware support : Manuel Goepfert

Contact : metmap@orbifly.com




SOURCES & CREDITS :

   NOAA